sensor_id;sensor_type;location;lat;lon;timestamp;temperature;humidity
38860;DHT22;24609;48.316;16.174;2023-09-07T00:00:36;12.90;99.90
38860;DHT22;24609;48.316;16.174;2023-09-07T00:03:02;12.90;99.90
38860;DHT22;24609;48.316;16.174;2023-09-07T00:05:27;12.80;99.90
38860;DHT22;24609;48.316;16.174;2023-09-07T00:07:53;12.90;99.90
38860;DHT22;24609;48.316;16.174;2023-09-07T00:10:19;12.80;99.90
38860;DHT22;24609;48.316;16.174;2023-09-07T00:12:44;12.70;99.90
38860;DHT22;24609;48.316;16.174;2023-09-07T00:15:11;12.70;99.90
38860;DHT22;24609;48.316;16.174;2023-09-07T00:17:37;12.70;99.90
38860;DHT22;24609;48.316;16.174;2023-09-07T00:20:03;12.60;99.90
38860;DHT22;24609;48.316;16.174;2023-09-07T00:22:36;12.60;99.90
38860;DHT22;24609;48.316;16.174;2023-09-07T00:25:02;12.60;99.90
38860;DHT22;24609;48.316;16.174;2023-09-07T00:27:29;12.60;99.90
38860;DHT22;24609;48.316;16.174;2023-09-07T00:29:55;12.60;99.90
38860;DHT22;24609;48.316;16.174;2023-09-07T00:32:21;12.60;99.90
38860;DHT22;24609;48.316;16.174;2023-09-07T00:34:46;12.60;99.90
38860;DHT22;24609;48.316;16.174;2023-09-07T00:37:12;12.50;99.90
38860;DHT22;24609;48.316;16.174;2023-09-07T00:39:38;12.50;99.90
38860;DHT22;24609;48.316;16.174;2023-09-07T00:42:04;12.50;99.90
38860;DHT22;24609;48.316;16.174;2023-09-07T00:44:29;12.50;99.90
38860;DHT22;24609;48.316;16.174;2023-09-07T00:46:56;12.50;99.90
38860;DHT22;24609;48.316;16.174;2023-09-07T00:49:23;12.50;99.90
38860;DHT22;24609;48.316;16.174;2023-09-07T00:51:50;12.50;99.90
38860;DHT22;24609;48.316;16.174;2023-09-07T00:54:16;12.50;99.90
38860;DHT22;24609;48.316;16.174;2023-09-07T00:56:42;12.50;99.90
38860;DHT22;24609;48.316;16.174;2023-09-07T00:59:08;12.40;99.90
38860;DHT22;24609;48.316;16.174;2023-09-07T01:01:35;12.30;99.90
38860;DHT22;24609;48.316;16.174;2023-09-07T01:04:01;12.30;99.90
38860;DHT22;24609;48.316;16.174;2023-09-07T01:07:07;12.20;99.90
38860;DHT22;24609;48.316;16.174;2023-09-07T01:09:37;12.10;99.90
38860;DHT22;24609;48.316;16.174;2023-09-07T01:12:05;12.20;99.90
38860;DHT22;24609;48.316;16.174;2023-09-07T01:14:36;12.30;99.90
38860;DHT22;24609;48.316;16.174;2023-09-07T01:17:03;12.30;99.90
38860;DHT22;24609;48.316;16.174;2023-09-07T01:19:29;12.30;99.90
38860;DHT22;24609;48.316;16.174;2023-09-07T01:21:54;12.30;99.90
38860;DHT22;24609;48.316;16.174;2023-09-07T01:24:21;12.30;99.90
38860;DHT22;24609;48.316;16.174;2023-09-07T01:26:48;12.20;99.90
38860;DHT22;24609;48.316;16.174;2023-09-07T01:29:15;12.20;99.90
38860;DHT22;24609;48.316;16.174;2023-09-07T01:31:42;12.20;99.90
38860;DHT22;24609;48.316;16.174;2023-09-07T01:34:09;12.20;99.90
38860;DHT22;24609;48.316;16.174;2023-09-07T01:36:35;12.10;99.90
38860;DHT22;24609;48.316;16.174;2023-09-07T01:39:03;12.10;99.90
38860;DHT22;24609;48.316;16.174;2023-09-07T01:41:28;12.10;99.90
38860;DHT22;24609;48.316;16.174;2023-09-07T01:43:55;12.10;99.90
38860;DHT22;24609;48.316;16.174;2023-09-07T01:46:21;12.10;99.90
38860;DHT22;24609;48.316;16.174;2023-09-07T01:48:46;12.00;99.90
38860;DHT22;24609;48.316;16.174;2023-09-07T01:51:12;12.00;99.90
38860;DHT22;24609;48.316;16.174;2023-09-07T01:53:38;12.00;99.90
38860;DHT22;24609;48.316;16.174;2023-09-07T01:56:03;12.00;99.90
38860;DHT22;24609;48.316;16.174;2023-09-07T01:58:29;12.10;99.90
38860;DHT22;24609;48.316;16.174;2023-09-07T02:00:58;12.10;99.90
38860;DHT22;24609;48.316;16.174;2023-09-07T02:03:27;12.20;99.90
38860;DHT22;24609;48.316;16.174;2023-09-07T02:05:53;12.20;99.90
38860;DHT22;24609;48.316;16.174;2023-09-07T02:08:19;12.10;99.90
38860;DHT22;24609;48.316;16.174;2023-09-07T02:10:45;12.10;99.90
38860;DHT22;24609;48.316;16.174;2023-09-07T02:13:10;11.90;99.90
38860;DHT22;24609;48.316;16.174;2023-09-07T02:15:40;11.80;99.90
38860;DHT22;24609;48.316;16.174;2023-09-07T02:18:06;11.70;99.90
38860;DHT22;24609;48.316;16.174;2023-09-07T02:20:32;11.70;99.90
38860;DHT22;24609;48.316;16.174;2023-09-07T02:22:58;11.80;99.90
38860;DHT22;24609;48.316;16.174;2023-09-07T02:25:24;11.80;99.90
38860;DHT22;24609;48.316;16.174;2023-09-07T02:27:49;11.90;99.90
38860;DHT22;24609;48.316;16.174;2023-09-07T02:30:15;11.90;99.90
38860;DHT22;24609;48.316;16.174;2023-09-07T02:32:42;11.90;99.90
38860;DHT22;24609;48.316;16.174;2023-09-07T02:35:08;11.90;99.90
38860;DHT22;24609;48.316;16.174;2023-09-07T02:37:35;11.80;99.90
38860;DHT22;24609;48.316;16.174;2023-09-07T02:40:01;11.80;99.90
38860;DHT22;24609;48.316;16.174;2023-09-07T02:42:27;11.80;99.90
38860;DHT22;24609;48.316;16.174;2023-09-07T02:44:52;11.70;99.90
38860;DHT22;24609;48.316;16.174;2023-09-07T02:47:19;11.70;99.90
38860;DHT22;24609;48.316;16.174;2023-09-07T02:49:44;11.70;99.90
38860;DHT22;24609;48.316;16.174;2023-09-07T02:52:10;11.80;99.90
38860;DHT22;24609;48.316;16.174;2023-09-07T02:54:36;11.70;99.90
38860;DHT22;24609;48.316;16.174;2023-09-07T02:57:01;11.70;99.90
38860;DHT22;24609;48.316;16.174;2023-09-07T02:59:27;11.80;99.90
38860;DHT22;24609;48.316;16.174;2023-09-07T03:01:53;11.80;99.90
38860;DHT22;24609;48.316;16.174;2023-09-07T03:04:19;11.80;99.90
38860;DHT22;24609;48.316;16.174;2023-09-07T03:06:44;11.80;99.90
38860;DHT22;24609;48.316;16.174;2023-09-07T03:09:10;11.90;99.90
38860;DHT22;24609;48.316;16.174;2023-09-07T03:11:36;11.90;99.90
38860;DHT22;24609;48.316;16.174;2023-09-07T03:14:01;11.90;99.90
38860;DHT22;24609;48.316;16.174;2023-09-07T03:16:27;11.80;99.90
38860;DHT22;24609;48.316;16.174;2023-09-07T03:18:53;11.80;99.90
38860;DHT22;24609;48.316;16.174;2023-09-07T03:21:18;11.90;99.90
38860;DHT22;24609;48.316;16.174;2023-09-07T03:23:44;11.90;99.90
38860;DHT22;24609;48.316;16.174;2023-09-07T03:26:10;11.90;99.90
38860;DHT22;24609;48.316;16.174;2023-09-07T03:28:36;12.10;99.90
38860;DHT22;24609;48.316;16.174;2023-09-07T03:31:02;12.00;99.90
38860;DHT22;24609;48.316;16.174;2023-09-07T03:33:27;11.90;99.90
38860;DHT22;24609;48.316;16.174;2023-09-07T03:35:53;11.90;99.90
38860;DHT22;24609;48.316;16.174;2023-09-07T03:38:24;11.90;99.90
38860;DHT22;24609;48.316;16.174;2023-09-07T03:40:50;11.90;99.90
38860;DHT22;24609;48.316;16.174;2023-09-07T03:43:16;12.00;99.90
38860;DHT22;24609;48.316;16.174;2023-09-07T03:45:41;11.90;99.90
38860;DHT22;24609;48.316;16.174;2023-09-07T03:48:07;11.90;99.90
38860;DHT22;24609;48.316;16.174;2023-09-07T03:50:34;11.90;99.90
38860;DHT22;24609;48.316;16.174;2023-09-07T03:53:01;12.00;99.90
38860;DHT22;24609;48.316;16.174;2023-09-07T03:55:26;12.00;99.90
38860;DHT22;24609;48.316;16.174;2023-09-07T03:57:52;12.00;99.90
38860;DHT22;24609;48.316;16.174;2023-09-07T04:00:18;12.00;99.90
38860;DHT22;24609;48.316;16.174;2023-09-07T04:02:44;12.00;99.90
38860;DHT22;24609;48.316;16.174;2023-09-07T04:05:10;11.80;99.90
38860;DHT22;24609;48.316;16.174;2023-09-07T04:07:38;11.80;99.90
38860;DHT22;24609;48.316;16.174;2023-09-07T04:10:05;11.80;99.90
38860;DHT22;24609;48.316;16.174;2023-09-07T04:12:31;11.80;99.90
38860;DHT22;24609;48.316;16.174;2023-09-07T04:14:57;11.70;99.90
38860;DHT22;24609;48.316;16.174;2023-09-07T04:17:22;11.60;99.90
38860;DHT22;24609;48.316;16.174;2023-09-07T04:19:48;11.60;99.90
38860;DHT22;24609;48.316;16.174;2023-09-07T04:22:13;11.60;99.90
38860;DHT22;24609;48.316;16.174;2023-09-07T04:24:39;11.60;99.90
38860;DHT22;24609;48.316;16.174;2023-09-07T04:27:05;11.60;99.90
38860;DHT22;24609;48.316;16.174;2023-09-07T04:29:30;11.50;99.90
38860;DHT22;24609;48.316;16.174;2023-09-07T04:31:56;11.50;99.90
38860;DHT22;24609;48.316;16.174;2023-09-07T04:34:22;11.50;99.90
38860;DHT22;24609;48.316;16.174;2023-09-07T04:36:48;11.50;99.90
38860;DHT22;24609;48.316;16.174;2023-09-07T04:39:14;11.60;99.90
38860;DHT22;24609;48.316;16.174;2023-09-07T04:41:40;11.60;99.90
38860;DHT22;24609;48.316;16.174;2023-09-07T04:44:06;11.60;99.90
38860;DHT22;24609;48.316;16.174;2023-09-07T04:46:32;11.70;99.90
38860;DHT22;24609;48.316;16.174;2023-09-07T04:48:57;11.70;99.90
38860;DHT22;24609;48.316;16.174;2023-09-07T04:51:23;11.70;99.90
38860;DHT22;24609;48.316;16.174;2023-09-07T04:53:51;11.70;99.90
38860;DHT22;24609;48.316;16.174;2023-09-07T04:56:17;11.80;99.90
38860;DHT22;24609;48.316;16.174;2023-09-07T04:58:43;11.90;99.90
38860;DHT22;24609;48.316;16.174;2023-09-07T05:01:12;11.90;99.90
38860;DHT22;24609;48.316;16.174;2023-09-07T05:03:38;11.90;99.90
38860;DHT22;24609;48.316;16.174;2023-09-07T05:06:05;12.00;99.90
38860;DHT22;24609;48.316;16.174;2023-09-07T05:08:31;12.10;99.90
38860;DHT22;24609;48.316;16.174;2023-09-07T05:10:58;12.20;99.90
38860;DHT22;24609;48.316;16.174;2023-09-07T05:13:25;12.30;99.90
38860;DHT22;24609;48.316;16.174;2023-09-07T05:15:52;12.40;99.90
38860;DHT22;24609;48.316;16.174;2023-09-07T05:18:19;12.50;99.90
38860;DHT22;24609;48.316;16.174;2023-09-07T05:20:45;12.60;99.90
38860;DHT22;24609;48.316;16.174;2023-09-07T05:23:14;12.80;99.90
38860;DHT22;24609;48.316;16.174;2023-09-07T05:25:52;12.80;99.90
38860;DHT22;24609;48.316;16.174;2023-09-07T05:28:19;13.10;99.90
38860;DHT22;24609;48.316;16.174;2023-09-07T05:30:45;13.20;99.90
38860;DHT22;24609;48.316;16.174;2023-09-07T05:33:14;13.30;99.90
38860;DHT22;24609;48.316;16.174;2023-09-07T05:35:40;13.40;99.90
38860;DHT22;24609;48.316;16.174;2023-09-07T05:38:07;13.50;99.90
38860;DHT22;24609;48.316;16.174;2023-09-07T05:40:40;13.60;99.90
38860;DHT22;24609;48.316;16.174;2023-09-07T05:43:07;13.70;99.90
38860;DHT22;24609;48.316;16.174;2023-09-07T05:45:40;13.90;99.90
38860;DHT22;24609;48.316;16.174;2023-09-07T05:48:07;14.10;99.90
38860;DHT22;24609;48.316;16.174;2023-09-07T05:50:37;14.30;99.90
38860;DHT22;24609;48.316;16.174;2023-09-07T05:53:04;14.50;99.90
38860;DHT22;24609;48.316;16.174;2023-09-07T05:55:30;14.80;99.90
38860;DHT22;24609;48.316;16.174;2023-09-07T05:57:57;15.00;99.90
38860;DHT22;24609;48.316;16.174;2023-09-07T06:00:23;15.30;99.90
38860;DHT22;24609;48.316;16.174;2023-09-07T06:02:49;15.50;99.90
38860;DHT22;24609;48.316;16.174;2023-09-07T06:05:15;15.70;99.90
38860;DHT22;24609;48.316;16.174;2023-09-07T06:07:42;16.00;99.90
38860;DHT22;24609;48.316;16.174;2023-09-07T06:10:08;16.40;99.90
38860;DHT22;24609;48.316;16.174;2023-09-07T06:12:34;16.80;99.90
38860;DHT22;24609;48.316;16.174;2023-09-07T06:15:00;17.30;99.90
38860;DHT22;24609;48.316;16.174;2023-09-07T06:17:27;17.70;99.90
38860;DHT22;24609;48.316;16.174;2023-09-07T06:19:54;18.20;99.90
38860;DHT22;24609;48.316;16.174;2023-09-07T06:22:20;18.90;99.90
38860;DHT22;24609;48.316;16.174;2023-09-07T06:24:45;19.90;99.90
38860;DHT22;24609;48.316;16.174;2023-09-07T06:27:11;21.10;99.90
38860;DHT22;24609;48.316;16.174;2023-09-07T06:29:37;22.10;99.90
38860;DHT22;24609;48.316;16.174;2023-09-07T06:32:03;22.00;99.90
38860;DHT22;24609;48.316;16.174;2023-09-07T06:34:28;22.20;99.90
38860;DHT22;24609;48.316;16.174;2023-09-07T06:36:54;22.70;99.90
38860;DHT22;24609;48.316;16.174;2023-09-07T06:39:20;23.90;99.90
38860;DHT22;24609;48.316;16.174;2023-09-07T06:41:46;24.80;95.50
38860;DHT22;24609;48.316;16.174;2023-09-07T06:44:12;25.30;94.70
38860;DHT22;24609;48.316;16.174;2023-09-07T06:46:38;25.90;92.70
38860;DHT22;24609;48.316;16.174;2023-09-07T06:49:04;26.20;90.60
38860;DHT22;24609;48.316;16.174;2023-09-07T06:51:31;26.10;86.90
38860;DHT22;24609;48.316;16.174;2023-09-07T06:53:57;26.60;84.60
38860;DHT22;24609;48.316;16.174;2023-09-07T06:56:23;26.30;87.90
38860;DHT22;24609;48.316;16.174;2023-09-07T06:58:49;26.40;86.20
38860;DHT22;24609;48.316;16.174;2023-09-07T07:01:14;27.30;77.10
38860;DHT22;24609;48.316;16.174;2023-09-07T07:03:41;27.90;77.00
38860;DHT22;24609;48.316;16.174;2023-09-07T07:06:07;27.10;65.10
38860;DHT22;24609;48.316;16.174;2023-09-07T07:08:33;26.70;71.20
38860;DHT22;24609;48.316;16.174;2023-09-07T07:10:58;26.80;74.10
38860;DHT22;24609;48.316;16.174;2023-09-07T07:13:24;26.20;66.90
38860;DHT22;24609;48.316;16.174;2023-09-07T07:15:50;26.10;69.10
38860;DHT22;24609;48.316;16.174;2023-09-07T07:18:15;26.10;68.60
38860;DHT22;24609;48.316;16.174;2023-09-07T07:20:42;26.10;67.50
38860;DHT22;24609;48.316;16.174;2023-09-07T07:23:09;25.90;66.60
38860;DHT22;24609;48.316;16.174;2023-09-07T07:25:35;25.60;75.70
38860;DHT22;24609;48.316;16.174;2023-09-07T07:28:03;25.90;70.40
38860;DHT22;24609;48.316;16.174;2023-09-07T07:30:36;25.70;73.60
38860;DHT22;24609;48.316;16.174;2023-09-07T07:33:03;25.80;73.40
38860;DHT22;24609;48.316;16.174;2023-09-07T07:35:32;26.30;73.20
38860;DHT22;24609;48.316;16.174;2023-09-07T07:37:58;26.20;72.60
38860;DHT22;24609;48.316;16.174;2023-09-07T07:40:24;26.50;70.20
38860;DHT22;24609;48.316;16.174;2023-09-07T07:42:52;26.60;69.10
38860;DHT22;24609;48.316;16.174;2023-09-07T07:45:18;27.10;69.10
38860;DHT22;24609;48.316;16.174;2023-09-07T07:47:45;26.80;67.60
38860;DHT22;24609;48.316;16.174;2023-09-07T07:50:11;26.60;67.60
38860;DHT22;24609;48.316;16.174;2023-09-07T07:52:37;26.50;68.20
38860;DHT22;24609;48.316;16.174;2023-09-07T07:55:03;26.80;67.30
38860;DHT22;24609;48.316;16.174;2023-09-07T07:57:28;27.50;68.10
38860;DHT22;24609;48.316;16.174;2023-09-07T07:59:55;28.50;64.00
38860;DHT22;24609;48.316;16.174;2023-09-07T08:02:21;29.90;65.30
38860;DHT22;24609;48.316;16.174;2023-09-07T08:04:47;30.70;55.50
38860;DHT22;24609;48.316;16.174;2023-09-07T08:07:13;30.80;51.10
38860;DHT22;24609;48.316;16.174;2023-09-07T08:09:38;31.20;50.30
38860;DHT22;24609;48.316;16.174;2023-09-07T08:12:05;31.80;47.90
38860;DHT22;24609;48.316;16.174;2023-09-07T08:14:31;32.10;46.50
38860;DHT22;24609;48.316;16.174;2023-09-07T08:16:57;33.00;43.10
38860;DHT22;24609;48.316;16.174;2023-09-07T08:19:23;33.30;35.20
38860;DHT22;24609;48.316;16.174;2023-09-07T08:21:50;32.50;32.70
38860;DHT22;24609;48.316;16.174;2023-09-07T08:24:16;32.20;35.90
38860;DHT22;24609;48.316;16.174;2023-09-07T08:26:42;32.60;32.90
38860;DHT22;24609;48.316;16.174;2023-09-07T08:29:09;32.60;31.50
38860;DHT22;24609;48.316;16.174;2023-09-07T08:31:35;33.60;30.10
38860;DHT22;24609;48.316;16.174;2023-09-07T08:34:01;33.50;32.20
38860;DHT22;24609;48.316;16.174;2023-09-07T08:36:30;34.20;29.70
38860;DHT22;24609;48.316;16.174;2023-09-07T08:38:59;35.00;28.30
38860;DHT22;24609;48.316;16.174;2023-09-07T08:41:26;34.00;26.10
38860;DHT22;24609;48.316;16.174;2023-09-07T08:43:54;33.20;25.40
38860;DHT22;24609;48.316;16.174;2023-09-07T08:46:21;33.70;25.20
38860;DHT22;24609;48.316;16.174;2023-09-07T08:48:49;34.40;26.20
38860;DHT22;24609;48.316;16.174;2023-09-07T08:51:16;34.40;26.30
38860;DHT22;24609;48.316;16.174;2023-09-07T08:53:42;34.40;24.00
38860;DHT22;24609;48.316;16.174;2023-09-07T08:56:12;33.60;23.10
38860;DHT22;24609;48.316;16.174;2023-09-07T08:58:38;32.40;24.10
38860;DHT22;24609;48.316;16.174;2023-09-07T09:01:05;33.20;24.80
38860;DHT22;24609;48.316;16.174;2023-09-07T09:03:31;34.90;24.40
38860;DHT22;24609;48.316;16.174;2023-09-07T09:05:57;35.60;22.30
38860;DHT22;24609;48.316;16.174;2023-09-07T09:08:23;35.20;22.80
38860;DHT22;24609;48.316;16.174;2023-09-07T09:11:01;35.20;21.40
38860;DHT22;24609;48.316;16.174;2023-09-07T09:13:30;35.60;22.10
38860;DHT22;24609;48.316;16.174;2023-09-07T09:15:59;35.80;21.70
38860;DHT22;24609;48.316;16.174;2023-09-07T09:18:26;35.10;20.20
38860;DHT22;24609;48.316;16.174;2023-09-07T09:20:56;35.10;21.20
38860;DHT22;24609;48.316;16.174;2023-09-07T09:23:34;35.60;21.00
38860;DHT22;24609;48.316;16.174;2023-09-07T09:26:00;35.90;21.20
38860;DHT22;24609;48.316;16.174;2023-09-07T09:28:26;36.50;20.10
38860;DHT22;24609;48.316;16.174;2023-09-07T09:30:57;36.20;19.50
38860;DHT22;24609;48.316;16.174;2023-09-07T09:33:23;35.90;20.10
38860;DHT22;24609;48.316;16.174;2023-09-07T09:35:49;36.20;19.40
38860;DHT22;24609;48.316;16.174;2023-09-07T09:38:16;36.70;19.30
38860;DHT22;24609;48.316;16.174;2023-09-07T09:40:42;36.90;19.60
38860;DHT22;24609;48.316;16.174;2023-09-07T09:43:08;37.70;18.60
38860;DHT22;24609;48.316;16.174;2023-09-07T09:45:34;37.90;16.60
38860;DHT22;24609;48.316;16.174;2023-09-07T09:48:01;37.20;18.10
38860;DHT22;24609;48.316;16.174;2023-09-07T09:50:28;37.30;16.40
38860;DHT22;24609;48.316;16.174;2023-09-07T09:52:55;37.40;15.90
38860;DHT22;24609;48.316;16.174;2023-09-07T09:55:22;36.50;16.40
38860;DHT22;24609;48.316;16.174;2023-09-07T09:57:48;37.90;17.10
38860;DHT22;24609;48.316;16.174;2023-09-07T10:00:16;38.00;15.50
38860;DHT22;24609;48.316;16.174;2023-09-07T10:05:36;38.50;15.10
38860;DHT22;24609;48.316;16.174;2023-09-07T10:08:09;37.70;14.80
38860;DHT22;24609;48.316;16.174;2023-09-07T10:10:36;36.90;15.20
38860;DHT22;24609;48.316;16.174;2023-09-07T10:13:03;35.60;15.60
38860;DHT22;24609;48.316;16.174;2023-09-07T10:15:29;37.00;15.30
38860;DHT22;24609;48.316;16.174;2023-09-07T10:18:14;36.10;14.50
38860;DHT22;24609;48.316;16.174;2023-09-07T10:20:53;36.60;14.80
38860;DHT22;24609;48.316;16.174;2023-09-07T10:23:19;37.00;14.10
38860;DHT22;24609;48.316;16.174;2023-09-07T10:25:53;36.90;14.40
38860;DHT22;24609;48.316;16.174;2023-09-07T10:28:20;36.80;14.70
38860;DHT22;24609;48.316;16.174;2023-09-07T10:33:30;38.10;13.60
38860;DHT22;24609;48.316;16.174;2023-09-07T10:35:56;37.60;13.00
38860;DHT22;24609;48.316;16.174;2023-09-07T10:38:22;38.60;12.80
38860;DHT22;24609;48.316;16.174;2023-09-07T10:40:54;38.50;12.70
38860;DHT22;24609;48.316;16.174;2023-09-07T10:43:19;39.10;12.10
38860;DHT22;24609;48.316;16.174;2023-09-07T10:45:45;38.80;11.80
38860;DHT22;24609;48.316;16.174;2023-09-07T10:48:12;38.20;11.80
38860;DHT22;24609;48.316;16.174;2023-09-07T10:50:44;38.50;11.10
38860;DHT22;24609;48.316;16.174;2023-09-07T10:53:12;39.20;11.40
38860;DHT22;24609;48.316;16.174;2023-09-07T10:55:39;38.70;10.70
38860;DHT22;24609;48.316;16.174;2023-09-07T10:58:06;40.10;11.40
38860;DHT22;24609;48.316;16.174;2023-09-07T11:00:32;39.70;10.50
38860;DHT22;24609;48.316;16.174;2023-09-07T11:02:58;38.50;10.40
38860;DHT22;24609;48.316;16.174;2023-09-07T11:05:24;41.00;10.90
38860;DHT22;24609;48.316;16.174;2023-09-07T11:07:50;41.20;9.80
38860;DHT22;24609;48.316;16.174;2023-09-07T11:10:15;40.70;9.40
38860;DHT22;24609;48.316;16.174;2023-09-07T11:12:41;41.60;9.30
38860;DHT22;24609;48.316;16.174;2023-09-07T11:15:10;40.70;8.50
38860;DHT22;24609;48.316;16.174;2023-09-07T11:17:39;39.00;8.80
38860;DHT22;24609;48.316;16.174;2023-09-07T11:20:06;39.70;10.10
38860;DHT22;24609;48.316;16.174;2023-09-07T11:22:33;40.30;8.50
38860;DHT22;24609;48.316;16.174;2023-09-07T11:25:02;40.30;8.10
38860;DHT22;24609;48.316;16.174;2023-09-07T11:27:29;39.80;8.00
38860;DHT22;24609;48.316;16.174;2023-09-07T11:29:56;39.10;9.50
38860;DHT22;24609;48.316;16.174;2023-09-07T11:32:23;38.80;9.30
38860;DHT22;24609;48.316;16.174;2023-09-07T11:34:50;39.40;8.80
38860;DHT22;24609;48.316;16.174;2023-09-07T11:37:25;39.90;8.10
38860;DHT22;24609;48.316;16.174;2023-09-07T11:39:51;39.40;7.50
38860;DHT22;24609;48.316;16.174;2023-09-07T11:42:17;39.70;8.70
38860;DHT22;24609;48.316;16.174;2023-09-07T11:44:43;41.20;6.90
38860;DHT22;24609;48.316;16.174;2023-09-07T11:47:08;40.80;6.30
38860;DHT22;24609;48.316;16.174;2023-09-07T11:49:34;41.60;5.90
38860;DHT22;24609;48.316;16.174;2023-09-07T11:52:00;41.20;5.40
38860;DHT22;24609;48.316;16.174;2023-09-07T11:54:26;39.90;6.10
38860;DHT22;24609;48.316;16.174;2023-09-07T11:56:52;37.80;7.40
38860;DHT22;24609;48.316;16.174;2023-09-07T11:59:18;37.60;9.10
38860;DHT22;24609;48.316;16.174;2023-09-07T12:01:44;39.20;8.00
38860;DHT22;24609;48.316;16.174;2023-09-07T12:04:10;39.70;6.70
38860;DHT22;24609;48.316;16.174;2023-09-07T12:06:36;40.20;5.90
38860;DHT22;24609;48.316;16.174;2023-09-07T12:09:04;39.70;5.50
38860;DHT22;24609;48.316;16.174;2023-09-07T12:11:29;40.40;7.20
38860;DHT22;24609;48.316;16.174;2023-09-07T12:13:56;39.70;5.80
38860;DHT22;24609;48.316;16.174;2023-09-07T12:16:22;40.20;7.10
38860;DHT22;24609;48.316;16.174;2023-09-07T12:18:48;40.50;6.30
38860;DHT22;24609;48.316;16.174;2023-09-07T12:21:14;41.10;5.20
38860;DHT22;24609;48.316;16.174;2023-09-07T12:23:40;40.80;6.00
38860;DHT22;24609;48.316;16.174;2023-09-07T12:26:05;41.60;4.90
38860;DHT22;24609;48.316;16.174;2023-09-07T12:28:32;42.60;5.20
38860;DHT22;24609;48.316;16.174;2023-09-07T12:30:57;41.00;6.20
38860;DHT22;24609;48.316;16.174;2023-09-07T12:33:24;41.00;5.50
38860;DHT22;24609;48.316;16.174;2023-09-07T12:35:50;40.10;6.20
38860;DHT22;24609;48.316;16.174;2023-09-07T12:38:16;39.70;6.30
38860;DHT22;24609;48.316;16.174;2023-09-07T12:40:44;38.60;7.10
38860;DHT22;24609;48.316;16.174;2023-09-07T12:43:10;38.90;7.40
38860;DHT22;24609;48.316;16.174;2023-09-07T12:45:36;41.10;6.60
38860;DHT22;24609;48.316;16.174;2023-09-07T12:48:02;39.90;5.80
38860;DHT22;24609;48.316;16.174;2023-09-07T12:50:27;39.10;7.90
38860;DHT22;24609;48.316;16.174;2023-09-07T12:52:53;38.80;7.20
38860;DHT22;24609;48.316;16.174;2023-09-07T12:55:19;38.50;7.40
38860;DHT22;24609;48.316;16.174;2023-09-07T12:57:46;38.90;7.70
38860;DHT22;24609;48.316;16.174;2023-09-07T13:00:12;38.10;7.30
38860;DHT22;24609;48.316;16.174;2023-09-07T13:02:38;38.20;8.50
38860;DHT22;24609;48.316;16.174;2023-09-07T13:05:04;38.30;8.40
38860;DHT22;24609;48.316;16.174;2023-09-07T13:07:31;38.90;7.00
38860;DHT22;24609;48.316;16.174;2023-09-07T13:09:58;38.30;7.90
38860;DHT22;24609;48.316;16.174;2023-09-07T13:12:24;38.40;7.90
38860;DHT22;24609;48.316;16.174;2023-09-07T13:14:49;38.40;7.70
38860;DHT22;24609;48.316;16.174;2023-09-07T13:17:15;38.30;8.40
38860;DHT22;24609;48.316;16.174;2023-09-07T13:19:41;37.60;8.10
38860;DHT22;24609;48.316;16.174;2023-09-07T13:22:08;39.10;7.60
38860;DHT22;24609;48.316;16.174;2023-09-07T13:24:33;39.50;7.20
38860;DHT22;24609;48.316;16.174;2023-09-07T13:26:59;38.40;7.30
38860;DHT22;24609;48.316;16.174;2023-09-07T13:29:25;39.00;7.20
38860;DHT22;24609;48.316;16.174;2023-09-07T13:31:51;39.00;7.70
38860;DHT22;24609;48.316;16.174;2023-09-07T13:34:20;39.60;7.50
38860;DHT22;24609;48.316;16.174;2023-09-07T13:36:46;39.30;7.30
38860;DHT22;24609;48.316;16.174;2023-09-07T13:39:12;39.50;6.60
38860;DHT22;24609;48.316;16.174;2023-09-07T13:41:37;39.60;7.40
38860;DHT22;24609;48.316;16.174;2023-09-07T13:44:03;38.80;7.50
38860;DHT22;24609;48.316;16.174;2023-09-07T13:46:29;38.60;7.60
38860;DHT22;24609;48.316;16.174;2023-09-07T13:48:55;38.50;7.40
38860;DHT22;24609;48.316;16.174;2023-09-07T13:51:21;38.80;7.70
38860;DHT22;24609;48.316;16.174;2023-09-07T13:53:46;38.20;7.40
38860;DHT22;24609;48.316;16.174;2023-09-07T13:56:12;38.10;7.90
38860;DHT22;24609;48.316;16.174;2023-09-07T13:58:37;38.30;7.80
38860;DHT22;24609;48.316;16.174;2023-09-07T14:01:03;38.20;8.10
38860;DHT22;24609;48.316;16.174;2023-09-07T14:03:29;37.70;8.00
38860;DHT22;24609;48.316;16.174;2023-09-07T14:05:55;36.60;9.10
38860;DHT22;24609;48.316;16.174;2023-09-07T14:08:21;32.30;13.10
38860;DHT22;24609;48.316;16.174;2023-09-07T14:10:50;30.40;17.10
38860;DHT22;24609;48.316;16.174;2023-09-07T14:13:18;29.20;18.20
38860;DHT22;24609;48.316;16.174;2023-09-07T14:15:44;28.50;19.10
38860;DHT22;24609;48.316;16.174;2023-09-07T14:18:10;28.40;19.80
38860;DHT22;24609;48.316;16.174;2023-09-07T14:20:36;28.80;18.50
38860;DHT22;24609;48.316;16.174;2023-09-07T14:23:01;28.40;19.70
38860;DHT22;24609;48.316;16.174;2023-09-07T14:25:27;28.00;20.20
38860;DHT22;24609;48.316;16.174;2023-09-07T14:27:53;27.80;20.80
38860;DHT22;24609;48.316;16.174;2023-09-07T14:30:19;27.70;21.30
38860;DHT22;24609;48.316;16.174;2023-09-07T14:32:44;27.70;21.50
38860;DHT22;24609;48.316;16.174;2023-09-07T14:35:15;27.60;21.20
38860;DHT22;24609;48.316;16.174;2023-09-07T14:37:41;27.50;21.10
38860;DHT22;24609;48.316;16.174;2023-09-07T14:40:07;27.40;21.40
38860;DHT22;24609;48.316;16.174;2023-09-07T14:42:33;27.40;22.00
38860;DHT22;24609;48.316;16.174;2023-09-07T14:44:59;27.40;22.10
38860;DHT22;24609;48.316;16.174;2023-09-07T14:47:30;27.30;21.80
38860;DHT22;24609;48.316;16.174;2023-09-07T14:49:56;27.30;22.30
38860;DHT22;24609;48.316;16.174;2023-09-07T14:52:22;27.20;22.60
38860;DHT22;24609;48.316;16.174;2023-09-07T14:54:50;27.20;22.30
38860;DHT22;24609;48.316;16.174;2023-09-07T14:57:16;27.20;22.70
38860;DHT22;24609;48.316;16.174;2023-09-07T14:59:42;27.20;23.00
38860;DHT22;24609;48.316;16.174;2023-09-07T15:02:07;27.10;22.40
38860;DHT22;24609;48.316;16.174;2023-09-07T15:04:33;27.00;22.70
38860;DHT22;24609;48.316;16.174;2023-09-07T15:07:00;27.00;22.60
38860;DHT22;24609;48.316;16.174;2023-09-07T15:09:26;26.90;22.60
38860;DHT22;24609;48.316;16.174;2023-09-07T15:11:51;26.90;23.10
38860;DHT22;24609;48.316;16.174;2023-09-07T15:14:18;26.80;23.10
38860;DHT22;24609;48.316;16.174;2023-09-07T15:16:44;26.80;23.30
38860;DHT22;24609;48.316;16.174;2023-09-07T15:19:10;26.80;24.40
38860;DHT22;24609;48.316;16.174;2023-09-07T15:21:36;26.80;23.70